Alta Vista, CA

11:49 AM PST on December 22, 2014 (GMT -0800)
Jamacha/Lomita | Change Station
CLOSE
Current Station
Personal Weather Station
Location: SAN DIEGO, CA
Elevation: 383 ft
Nearby Weather Stations
Active Advisory: Beach Hazard Statement

Elev 383 ft 32.72 °N, 117.04 °W | Updated 2 seconds ago

Clear
Clear
71.6 °F
Feels Like 76 °F
N
1.3
Wind Variable Wind from WNW
Gusts 2.2 mph

Today
High -- | Low -- °F
--% Chance of Precip.
Yesterday
High -- | Low -- °F
Precip. -- in
6:46 AM 4:46 PM
New Moon, 1% visible
Pressure 30.05 in
Visibility 10.0 miles
Clouds Clear
Heat Index 76 °F
Dew Point 58 °F
Humidity 61%
Rainfall 0.00 in
Snow Depth Not available.
UV 3 out of 12
Pollen 5.10 out of 12
Air Quality Not available.
Flu Activity Not available.
METAR KSAN 221851Z 30006KT 10SM CLR 20/13 A3005 RMK AO2 SLP175 T02000128

More Conditions Fewer Conditions

Pressure 30.05 in
Visibility 10.0 miles
Clouds Clear
Heat Index 76 °F
Dew Point 58 °F
Humidity 61%
Rainfall 0.00 in
Snow Depth Not available.
UV 3 out of 12
Pollen 5.10 out of 12
Air Quality Not available.
Flu Activity Not available.
METAR KSAN 221851Z 30006KT 10SM CLR 20/13 A3005 RMK AO2 SLP175 T02000128

More Conditions Fewer Conditions

10-Day Weather Forecast

Almanac

Astronomy

Dec. 22, 2014 Rise Set
Actual Time
Civil Twilight
Nautical Twilight
Astronomical Twilight
Moon
Length of Visible Light
Length of Day
Tomorrow will be .
, % of the Moon is Illuminated

Today's Extremes

State Highs State Lows

Community

WunderPhotos

Upload Photos

1,779,699 photos uploaded!

WunderBlogs® & News

Nearby

Air Quality

  Air Quality AQ Index Pollutant
Not available.

Snow Depth

Station Depth Elevation

Earthquake Activity

City Distance Mag. Time & Date
Minimum magnitude displayed is 2.5.

Coastal Water Temperatures

Place Temperature

Nearby Weather Stations